createdAt,value
2022-08-23T00:01:23.973Z,52.75
2022-08-23T00:03:52.441Z,53.21
2022-08-23T00:06:19.222Z,53.09
2022-08-23T00:08:48.686Z,53.42
2022-08-23T00:11:28.409Z,53.50
2022-08-23T00:13:55.752Z,53.46
2022-08-23T00:16:22.600Z,53.58
2022-08-23T00:18:49.587Z,53.51
2022-08-23T00:21:17.090Z,54.36
2022-08-23T00:23:43.788Z,54.47
2022-08-23T00:26:10.778Z,54.42
2022-08-23T00:28:37.541Z,54.14
2022-08-23T00:31:05.107Z,54.61
2022-08-23T00:33:31.686Z,54.64
2022-08-23T00:35:58.240Z,55.21
2022-08-23T00:38:32.493Z,55.22
2022-08-23T00:41:01.843Z,55.00
2022-08-23T00:44:00.760Z,55.21
2022-08-23T00:47:01.386Z,55.24
2022-08-23T00:49:29.854Z,55.99
2022-08-23T00:52:08.354Z,55.58
2022-08-23T00:54:38.043Z,55.73
2022-08-23T00:57:19.330Z,56.03
2022-08-23T00:59:46.737Z,56.15
2022-08-23T01:02:14.816Z,56.52
2022-08-23T01:04:50.457Z,55.91
2022-08-23T01:07:34.056Z,56.29
2022-08-23T01:10:09.345Z,55.74
2022-08-23T01:12:50.476Z,56.38
2022-08-23T01:15:23.922Z,56.75
2022-08-23T01:17:58.649Z,56.69
2022-08-23T01:20:26.987Z,56.78
2022-08-23T01:23:10.464Z,57.26
2022-08-23T01:25:38.126Z,57.42
2022-08-23T01:28:05.143Z,57.14
2022-08-23T01:30:35.386Z,57.31
2022-08-23T01:33:06.127Z,57.85
2022-08-23T01:35:44.804Z,57.56
2022-08-23T01:38:12.603Z,57.89
2022-08-23T01:40:40.045Z,57.89
2022-08-23T01:43:07.573Z,58.21
2022-08-23T01:45:35.327Z,58.29
2022-08-23T01:48:02.833Z,58.33
2022-08-23T01:50:30.337Z,58.27
2022-08-23T01:52:57.840Z,58.04
2022-08-23T01:55:25.810Z,58.35
2022-08-23T01:57:55.877Z,58.54
2022-08-23T02:00:27.475Z,58.80
2022-08-23T02:02:54.030Z,59.09
2022-08-23T02:05:20.706Z,58.86
2022-08-23T02:07:48.381Z,59.14
2022-08-23T02:10:16.109Z,59.69
2022-08-23T02:12:46.827Z,59.11
2022-08-23T02:15:14.902Z,59.44
2022-08-23T02:17:41.805Z,59.62
2022-08-23T02:20:09.193Z,59.41
2022-08-23T02:22:39.034Z,59.71
2022-08-23T02:25:06.648Z,59.72
2022-08-23T02:27:33.230Z,59.79
2022-08-23T02:29:59.790Z,60.28
2022-08-23T02:32:28.759Z,60.46
2022-08-23T02:35:05.725Z,60.28
2022-08-23T02:37:33.187Z,60.36
2022-08-23T02:40:00.227Z,60.25
2022-08-23T02:42:26.979Z,60.70
2022-08-23T02:44:53.548Z,61.01
2022-08-23T02:47:20.112Z,61.34
2022-08-23T02:49:46.932Z,61.46
2022-08-23T02:52:13.685Z,62.01
2022-08-23T02:54:40.395Z,62.11
2022-08-23T02:57:07.191Z,62.27
2022-08-23T02:59:33.861Z,61.89
2022-08-23T03:02:00.572Z,62.57
2022-08-23T03:04:27.535Z,62.49
2022-08-23T03:06:54.208Z,63.16
2022-08-23T03:09:20.905Z,63.03
2022-08-23T03:11:50.028Z,63.01
2022-08-23T03:14:16.991Z,63.04
2022-08-23T03:16:44.950Z,63.47
2022-08-23T03:19:11.537Z,62.98
2022-08-23T03:21:38.690Z,63.90
2022-08-23T03:24:10.189Z,63.83
2022-08-23T03:26:37.613Z,63.84
2022-08-23T03:29:04.726Z,63.58
2022-08-23T03:31:31.327Z,64.09
2022-08-23T03:33:58.192Z,63.99
2022-08-23T03:36:28.023Z,64.16
2022-08-23T03:38:55.567Z,64.25
2022-08-23T03:41:22.393Z,64.45
2022-08-23T03:43:49.043Z,64.36
2022-08-23T03:46:23.067Z,64.51
2022-08-23T03:48:55.391Z,64.08
2022-08-23T03:51:24.498Z,64.54
2022-08-23T03:53:51.178Z,64.06
2022-08-23T03:56:21.870Z,64.26
2022-08-23T03:58:50.194Z,64.38
2022-08-23T04:01:17.276Z,64.21
2022-08-23T04:03:43.970Z,64.09
2022-08-23T04:06:12.003Z,64.04
2022-08-23T04:08:38.749Z,64.29
2022-08-23T04:11:05.780Z,63.52
2022-08-23T04:13:32.371Z,64.15
2022-08-23T04:15:59.027Z,63.74
2022-08-23T04:18:25.682Z,63.84
2022-08-23T04:20:53.045Z,63.87
2022-08-23T04:23:19.588Z,63.31
2022-08-23T04:25:46.322Z,62.67
2022-08-23T04:28:12.965Z,62.77
2022-08-23T04:30:39.527Z,62.46
2022-08-23T04:33:09.927Z,61.42
2022-08-23T04:35:37.907Z,61.33
2022-08-23T04:38:04.499Z,60.69
2022-08-23T04:41:11.406Z,60.84
2022-08-23T04:43:38.514Z,60.65
2022-08-23T04:46:05.708Z,60.94
2022-08-23T04:48:32.545Z,60.51
2022-08-23T04:50:59.266Z,60.85
2022-08-23T04:53:25.989Z,60.43
2022-08-23T04:55:52.548Z,60.59
2022-08-23T04:58:19.408Z,60.49
2022-08-23T05:00:51.522Z,60.06
2022-08-23T05:03:18.441Z,60.03
2022-08-23T05:05:45.042Z,59.99
2022-08-23T05:08:11.704Z,59.77
2022-08-23T05:10:38.635Z,59.63
2022-08-23T05:13:05.207Z,59.38
2022-08-23T05:15:31.798Z,59.15
2022-08-23T05:17:58.409Z,59.19
2022-08-23T05:20:25.163Z,59.32
2022-08-23T05:22:51.999Z,59.09
2022-08-23T05:25:18.591Z,58.65
2022-08-23T05:27:45.231Z,58.74
2022-08-23T05:30:15.133Z,58.80
2022-08-23T05:32:42.420Z,58.27
2022-08-23T05:35:09.392Z,58.52
2022-08-23T05:37:36.007Z,57.95
2022-08-23T05:40:02.867Z,58.21
2022-08-23T05:42:29.468Z,57.94
2022-08-23T05:44:56.604Z,57.87
2022-08-23T05:47:24.863Z,57.47
2022-08-23T05:49:51.846Z,57.12
2022-08-23T05:52:18.439Z,57.02
2022-08-23T05:54:45.128Z,57.00
2022-08-23T05:57:11.874Z,56.29
2022-08-23T05:59:38.556Z,56.07
2022-08-23T06:02:06.102Z,56.01
2022-08-23T06:04:33.268Z,55.46
2022-08-23T06:06:59.910Z,54.95
2022-08-23T06:09:26.707Z,54.79
2022-08-23T06:11:54.400Z,54.38
2022-08-23T06:14:21.560Z,54.36
2022-08-23T06:16:53.619Z,54.06
2022-08-23T06:19:23.290Z,54.00
2022-08-23T06:21:51.360Z,53.54
2022-08-23T06:24:18.131Z,53.51
2022-08-23T06:26:45.814Z,53.17
2022-08-23T06:29:16.026Z,53.34
2022-08-23T06:31:49.164Z,53.38
2022-08-23T06:34:27.819Z,53.12
2022-08-23T06:37:02.366Z,52.64
2022-08-23T06:39:33.437Z,53.14
2022-08-23T06:42:13.309Z,52.51
2022-08-23T06:44:48.998Z,52.80
2022-08-23T06:47:15.730Z,53.00
2022-08-23T06:49:51.106Z,52.82
2022-08-23T06:52:24.761Z,53.02
2022-08-23T06:54:52.582Z,52.70
2022-08-23T06:57:20.638Z,52.48
2022-08-23T06:59:50.050Z,52.25
2022-08-23T07:02:16.885Z,52.04
2022-08-23T07:04:43.634Z,51.86
2022-08-23T07:07:12.167Z,51.83
2022-08-23T07:09:40.572Z,51.91
2022-08-23T07:12:07.713Z,51.66
2022-08-23T07:14:34.535Z,51.34
2022-08-23T07:17:03.628Z,51.33
2022-08-23T07:19:33.236Z,51.35
2022-08-23T07:22:01.788Z,51.15
2022-08-23T07:24:33.315Z,50.66
2022-08-23T07:27:04.025Z,50.74
2022-08-23T07:29:30.548Z,50.95
2022-08-23T07:31:58.118Z,50.54
2022-08-23T07:34:26.325Z,50.51
2022-08-23T07:36:54.341Z,50.31
2022-08-23T07:39:22.844Z,50.11
2022-08-23T07:41:49.922Z,49.58
2022-08-23T07:44:18.268Z,49.71
2022-08-23T07:46:47.032Z,49.52
2022-08-23T07:49:15.525Z,49.53
2022-08-23T07:51:45.585Z,49.15
2022-08-23T07:54:13.514Z,49.41
2022-08-23T07:56:40.621Z,49.03
2022-08-23T07:59:08.476Z,48.95
2022-08-23T08:01:36.291Z,48.45
2022-08-23T08:04:04.863Z,48.83
2022-08-23T08:06:40.468Z,48.38
2022-08-23T08:09:07.983Z,48.23
2022-08-23T08:11:35.803Z,48.24
2022-08-23T08:14:07.974Z,48.43
2022-08-23T08:17:00.771Z,48.63
2022-08-23T08:19:27.388Z,47.80
2022-08-23T08:21:53.966Z,47.97
2022-08-23T08:24:20.530Z,47.56
2022-08-23T08:26:47.409Z,48.10
2022-08-23T08:29:14.306Z,47.75
2022-08-23T08:31:43.309Z,47.60
2022-08-23T08:34:12.036Z,47.71
2022-08-23T08:36:52.112Z,47.34
2022-08-23T08:39:22.425Z,47.22
2022-08-23T08:42:04.775Z,47.31
2022-08-23T08:44:37.452Z,46.84
2022-08-23T08:47:29.231Z,45.40
2022-08-23T08:50:26.680Z,45.52
2022-08-23T08:53:10.230Z,45.69
2022-08-23T08:55:41.569Z,45.48
2022-08-23T08:58:17.306Z,45.46
2022-08-23T09:00:44.145Z,44.66
2022-08-23T09:03:14.479Z,44.21
2022-08-23T09:05:52.854Z,43.80
2022-08-23T09:08:44.207Z,44.13
2022-08-23T09:11:45.622Z,44.54
2022-08-23T09:14:15.175Z,44.55
2022-08-23T09:17:05.602Z,44.53
2022-08-23T09:19:37.094Z,44.24
2022-08-23T09:22:15.380Z,44.32
2022-08-23T09:24:42.671Z,43.52
2022-08-23T09:27:10.658Z,43.28
2022-08-23T09:29:40.556Z,43.38
2022-08-23T09:32:26.993Z,43.44
2022-08-23T09:35:25.109Z,43.15
2022-08-23T09:38:17.429Z,42.83
2022-08-23T09:40:46.484Z,43.44
2022-08-23T09:43:43.731Z,43.56
2022-08-23T09:46:10.492Z,43.16
2022-08-23T09:48:45.576Z,43.09
2022-08-23T09:51:29.589Z,42.84
2022-08-23T09:54:34.911Z,42.50
2022-08-23T09:57:05.064Z,42.92
2022-08-23T09:59:35.102Z,42.68
2022-08-23T10:02:02.569Z,42.48
2022-08-23T10:04:38.886Z,42.29
2022-08-23T10:07:26.212Z,42.56
2022-08-23T10:09:53.168Z,42.14
2022-08-23T10:12:19.966Z,42.05
2022-08-23T10:14:48.114Z,41.72
2022-08-23T10:17:14.783Z,41.68
2022-08-23T10:19:52.464Z,41.39
2022-08-23T10:22:24.558Z,40.63
2022-08-23T10:25:02.686Z,40.43
2022-08-23T10:28:03.322Z,41.06
2022-08-23T10:30:51.797Z,40.62
2022-08-23T10:33:38.654Z,40.10
2022-08-23T10:36:05.494Z,39.86
2022-08-23T10:38:35.687Z,39.27
2022-08-23T10:41:23.718Z,38.46
2022-08-23T10:44:14.912Z,39.88
2022-08-23T10:47:20.068Z,40.18
2022-08-23T10:49:50.796Z,40.26
2022-08-23T10:52:23.622Z,39.93
2022-08-23T10:55:05.875Z,39.72
2022-08-23T10:57:37.924Z,39.36
2022-08-23T11:00:09.160Z,38.97
2022-08-23T11:03:04.806Z,39.42
2022-08-23T11:05:35.873Z,39.86
2022-08-23T11:08:11.973Z,39.22
2022-08-23T11:10:39.224Z,38.92
2022-08-23T11:13:21.730Z,37.89
2022-08-23T11:16:23.509Z,38.05
2022-08-23T11:18:51.271Z,38.18
2022-08-23T11:21:18.010Z,38.19
2022-08-23T11:23:58.424Z,37.78
2022-08-23T11:26:34.191Z,38.59
2022-08-23T11:29:06.845Z,37.80
2022-08-23T11:31:38.710Z,38.53
2022-08-23T11:34:31.524Z,38.84
2022-08-23T11:37:20.052Z,38.42
2022-08-23T11:40:07.554Z,38.07
2022-08-23T11:42:44.822Z,37.80
2022-08-23T11:47:42.422Z,37.79
2022-08-23T11:50:38.798Z,37.94
2022-08-23T11:53:44.032Z,37.67
2022-08-23T11:56:52.598Z,36.99
2022-08-23T11:59:41.622Z,36.61
2022-08-23T12:02:39.772Z,36.27
2022-08-23T12:05:35.349Z,36.29
2022-08-23T12:08:02.712Z,36.60
2022-08-23T12:10:41.775Z,35.83
2022-08-23T12:13:20.628Z,35.78
2022-08-23T12:16:14.778Z,35.42
2022-08-23T12:18:53.466Z,35.64
2022-08-23T12:21:50.795Z,35.84
2022-08-23T12:24:20.290Z,36.22
2022-08-23T12:27:09.337Z,36.03
2022-08-23T12:30:03.118Z,35.78
2022-08-23T12:32:49.951Z,35.58
2022-08-23T12:35:25.863Z,35.97
2022-08-23T12:38:04.317Z,35.62
2022-08-23T12:40:43.928Z,35.36
2022-08-23T12:43:22.505Z,35.28
2022-08-23T12:46:00.968Z,35.39
2022-08-23T12:48:30.935Z,35.85
2022-08-23T12:51:10.840Z,35.50
2022-08-23T12:53:45.611Z,35.25
2022-08-23T12:56:20.027Z,35.44
2022-08-23T12:58:53.636Z,34.47
2022-08-23T13:01:32.267Z,35.01
2022-08-23T13:04:04.926Z,34.69
2022-08-23T13:06:37.908Z,35.10
2022-08-23T13:09:13.089Z,35.00
2022-08-23T13:11:40.376Z,34.59
2022-08-23T13:14:31.124Z,34.81
2022-08-23T13:17:31.502Z,34.95
2022-08-23T13:20:07.156Z,34.81
2022-08-23T13:22:36.045Z,34.27
2022-08-23T13:25:32.309Z,34.38
2022-08-23T13:28:03.440Z,34.51
2022-08-23T13:30:33.186Z,34.21
2022-08-23T13:33:08.677Z,33.40
2022-08-23T13:35:50.232Z,33.54
2022-08-23T13:38:22.822Z,33.18
2022-08-23T13:41:10.535Z,33.41
2022-08-23T13:43:48.838Z,32.40
2022-08-23T13:46:28.862Z,32.42
2022-08-23T13:49:11.591Z,32.76
2022-08-23T13:51:41.399Z,31.99
2022-08-23T13:54:13.781Z,32.04
2022-08-23T13:56:53.374Z,31.92
2022-08-23T13:59:31.810Z,32.06
2022-08-23T14:02:06.481Z,31.73
2022-08-23T14:04:34.175Z,31.47
2022-08-23T14:07:00.736Z,31.09
2022-08-23T14:09:27.407Z,31.54
2022-08-23T14:11:59.294Z,32.33
2022-08-23T14:14:28.145Z,32.64
2022-08-23T14:16:59.632Z,33.07
2022-08-23T14:22:17.885Z,33.22
2022-08-23T14:24:45.649Z,32.49
2022-08-23T14:27:12.798Z,32.53
2022-08-23T14:29:39.376Z,33.14
2022-08-23T14:32:06.185Z,33.78
2022-08-23T14:34:32.741Z,32.67
2022-08-23T14:39:46.514Z,31.86
2022-08-23T14:42:19.137Z,31.23
2022-08-23T14:44:45.934Z,31.35
2022-08-23T14:47:12.561Z,32.04
2022-08-23T14:49:39.538Z,32.85
2022-08-23T14:52:06.441Z,32.98
2022-08-23T14:54:33.523Z,33.59
2022-08-23T14:57:00.524Z,34.49
2022-08-23T14:59:27.250Z,34.86
2022-08-23T15:01:55.056Z,35.37
2022-08-23T15:04:23.608Z,35.43
2022-08-23T15:07:16.162Z,34.53
2022-08-23T15:09:38.363Z,33.52
2022-08-23T15:14:52.434Z,33.44
2022-08-23T15:17:19.100Z,34.70
2022-08-23T15:19:45.650Z,34.41
2022-08-23T15:22:18.459Z,34.86
2022-08-23T15:24:47.856Z,35.18
2022-08-23T15:27:14.461Z,35.31
2022-08-23T15:29:41.088Z,36.08
2022-08-23T15:32:07.839Z,36.36
2022-08-23T15:34:37.163Z,36.18
2022-08-23T15:37:06.849Z,36.72
2022-08-23T15:39:33.459Z,37.06
2022-08-23T15:42:00.019Z,37.26
2022-08-23T15:44:26.602Z,37.42
2022-08-23T15:46:54.844Z,37.44
2022-08-23T15:49:23.804Z,37.44
2022-08-23T15:51:50.347Z,37.43
2022-08-23T15:54:16.914Z,37.92
2022-08-23T15:56:46.993Z,38.00
2022-08-23T15:59:15.668Z,37.72
2022-08-23T16:01:42.715Z,37.97
2022-08-23T16:04:10.300Z,37.83
2022-08-23T16:06:37.994Z,37.93
2022-08-23T16:09:06.531Z,37.90
2022-08-23T16:11:33.485Z,38.38
2022-08-23T16:14:00.262Z,38.32
2022-08-23T16:16:31.013Z,38.48
2022-08-23T16:18:59.770Z,38.48
2022-08-23T16:21:29.202Z,38.63
2022-08-23T16:23:57.062Z,38.81
2022-08-23T16:26:34.751Z,38.49
2022-08-23T16:29:04.405Z,38.60
2022-08-23T16:31:38.440Z,38.87
2022-08-23T16:34:09.655Z,38.63
2022-08-23T16:36:36.912Z,38.88
2022-08-23T16:39:04.950Z,39.08
2022-08-23T16:41:31.585Z,38.85
2022-08-23T16:43:58.410Z,38.59
2022-08-23T16:46:28.840Z,39.34
2022-08-23T16:48:55.671Z,39.21
2022-08-23T16:51:23.188Z,39.22
2022-08-23T16:54:01.425Z,39.58
2022-08-23T16:56:33.540Z,39.61
2022-08-23T16:59:00.330Z,39.92
2022-08-23T17:01:27.551Z,39.71
2022-08-23T17:03:54.164Z,39.90
2022-08-23T17:06:21.069Z,39.83
2022-08-23T17:08:48.377Z,39.91
2022-08-23T17:11:18.869Z,39.65
2022-08-23T17:13:46.098Z,39.23
2022-08-23T17:16:12.968Z,39.58
2022-08-23T17:18:40.089Z,39.44
2022-08-23T17:21:07.721Z,40.03
2022-08-23T17:23:40.385Z,39.86
2022-08-23T17:26:09.569Z,39.44
2022-08-23T17:28:36.436Z,40.14
2022-08-23T17:31:03.880Z,39.79
2022-08-23T17:33:30.681Z,40.09
2022-08-23T17:35:57.344Z,39.66
2022-08-23T17:38:24.114Z,39.98
2022-08-23T17:40:50.898Z,39.64
2022-08-23T17:43:17.457Z,39.70
2022-08-23T17:45:51.260Z,39.76
2022-08-23T17:48:20.546Z,39.89
2022-08-23T17:50:48.178Z,40.39
2022-08-23T17:53:17.693Z,40.02
2022-08-23T17:55:44.415Z,40.37
2022-08-23T17:58:11.828Z,39.90
2022-08-23T18:00:39.837Z,40.54
2022-08-23T18:03:07.290Z,40.36
2022-08-23T18:05:37.332Z,40.54
2022-08-23T18:08:04.469Z,40.56
2022-08-23T18:10:31.120Z,40.73
2022-08-23T18:12:58.732Z,40.81
2022-08-23T18:15:26.828Z,40.86
2022-08-23T18:17:58.137Z,40.83
2022-08-23T18:20:28.414Z,40.78
2022-08-23T18:22:56.945Z,40.67
2022-08-23T18:25:24.362Z,41.44
2022-08-23T18:28:06.337Z,41.21
2022-08-23T18:30:37.508Z,41.82
2022-08-23T18:33:06.503Z,41.43
2022-08-23T18:35:34.681Z,41.95
2022-08-23T18:38:01.388Z,42.11
2022-08-23T18:40:28.833Z,42.16
2022-08-23T18:42:55.983Z,42.17
2022-08-23T18:45:22.962Z,42.95
2022-08-23T18:47:49.649Z,43.19
2022-08-23T18:50:18.740Z,43.60
2022-08-23T18:52:45.446Z,43.77
2022-08-23T18:55:12.117Z,44.06
2022-08-23T18:57:39.120Z,44.40
2022-08-23T19:00:06.826Z,44.40
2022-08-23T19:02:34.098Z,44.30
2022-08-23T19:05:03.026Z,44.93
2022-08-23T19:07:29.831Z,44.96
2022-08-23T19:09:56.454Z,45.05
2022-08-23T19:12:23.203Z,45.20
2022-08-23T19:14:49.816Z,44.62
2022-08-23T19:17:16.731Z,44.65
2022-08-23T19:19:43.357Z,45.33
2022-08-23T19:22:09.990Z,45.10
2022-08-23T19:24:36.625Z,45.57
2022-08-23T19:27:03.389Z,45.83
2022-08-23T19:29:30.108Z,45.59
2022-08-23T19:31:56.735Z,45.91
2022-08-23T19:34:23.870Z,46.09
2022-08-23T19:36:59.103Z,46.32
2022-08-23T19:39:28.248Z,46.61
2022-08-23T19:41:55.374Z,46.27
2022-08-23T19:44:22.772Z,46.35
2022-08-23T19:46:49.542Z,46.30
2022-08-23T19:49:16.629Z,46.70
2022-08-23T19:51:44.085Z,46.90
2022-08-23T19:54:12.916Z,46.63
2022-08-23T19:56:41.858Z,46.75
2022-08-23T19:59:12.698Z,46.76
2022-08-23T20:01:39.849Z,46.96
2022-08-23T20:04:06.740Z,47.38
2022-08-23T20:06:33.731Z,47.40
2022-08-23T20:09:00.533Z,47.34
2022-08-23T20:11:28.454Z,47.42
2022-08-23T20:13:56.713Z,48.03
2022-08-23T20:16:23.958Z,48.11
2022-08-23T20:18:51.591Z,48.26
2022-08-23T20:21:18.355Z,48.23
2022-08-23T20:24:03.815Z,48.19
2022-08-23T20:26:30.444Z,48.45
2022-08-23T20:28:59.831Z,48.21
2022-08-23T20:31:30.472Z,48.79
2022-08-23T20:33:57.263Z,48.49
2022-08-23T20:36:24.826Z,48.54
2022-08-23T20:38:51.547Z,49.16
2022-08-23T20:41:18.162Z,49.00
2022-08-23T20:43:49.007Z,49.36
2022-08-23T20:46:16.273Z,49.58
2022-08-23T20:48:43.067Z,49.67
2022-08-23T20:51:09.966Z,49.19
2022-08-23T20:53:38.143Z,49.64
2022-08-23T20:56:04.863Z,49.83
2022-08-23T20:58:32.993Z,49.44
2022-08-23T21:01:00.585Z,49.37
2022-08-23T21:03:27.264Z,49.68
2022-08-23T21:06:15.117Z,49.86
2022-08-23T21:08:43.453Z,50.08
2022-08-23T21:11:10.959Z,50.97
2022-08-23T21:13:44.005Z,50.55
2022-08-23T21:16:11.955Z,50.88
2022-08-23T21:18:39.016Z,51.16
2022-08-23T21:21:05.771Z,51.03
2022-08-23T21:23:33.034Z,50.98
2022-08-23T21:25:59.708Z,51.60
2022-08-23T21:28:27.315Z,51.57
2022-08-23T21:30:54.588Z,51.82
2022-08-23T21:33:22.071Z,52.10
2022-08-23T21:35:49.410Z,52.28
2022-08-23T21:38:15.961Z,52.30
2022-08-23T21:40:43.483Z,52.65
2022-08-23T21:43:10.462Z,52.76
2022-08-23T21:45:37.619Z,52.93
2022-08-23T21:48:08.423Z,53.14
2022-08-23T21:50:34.960Z,53.02
2022-08-23T21:53:01.649Z,53.37
2022-08-23T21:55:36.075Z,53.47
2022-08-23T21:58:03.808Z,53.94
2022-08-23T22:00:30.691Z,54.16
2022-08-23T22:02:57.642Z,54.26
2022-08-23T22:05:24.708Z,54.00
2022-08-23T22:07:51.952Z,54.83
2022-08-23T22:10:19.279Z,54.34
2022-08-23T22:12:45.924Z,54.33
2022-08-23T22:15:13.076Z,54.90
2022-08-23T22:17:40.557Z,54.82
2022-08-23T22:20:09.499Z,55.00
2022-08-23T22:22:36.929Z,55.16
2022-08-23T22:25:04.282Z,55.46
2022-08-23T22:27:32.425Z,55.69
2022-08-23T22:29:59.500Z,56.02
2022-08-23T22:32:26.747Z,56.21
2022-08-23T22:34:53.423Z,56.14
2022-08-23T22:37:19.970Z,56.14
2022-08-23T22:39:46.658Z,56.54
2022-08-23T22:42:13.862Z,56.33
2022-08-23T22:44:40.713Z,56.40
2022-08-23T22:47:07.701Z,56.77
2022-08-23T22:49:34.619Z,57.09
2022-08-23T22:52:01.563Z,57.51
2022-08-23T22:54:28.117Z,57.75
2022-08-23T22:56:54.725Z,57.99
2022-08-23T22:59:25.846Z,58.26
2022-08-23T23:01:56.088Z,58.12
2022-08-23T23:04:25.859Z,58.23
2022-08-23T23:06:53.671Z,58.34
2022-08-23T23:09:20.556Z,58.67
2022-08-23T23:11:48.079Z,58.46
2022-08-23T23:14:17.053Z,58.75
2022-08-23T23:16:44.659Z,58.65
2022-08-23T23:19:50.408Z,58.94
2022-08-23T23:22:17.266Z,58.81
2022-08-23T23:24:43.850Z,59.04
2022-08-23T23:27:10.456Z,59.16
2022-08-23T23:29:38.451Z,59.06
2022-08-23T23:32:06.069Z,59.86
2022-08-23T23:34:32.692Z,59.63
2022-08-23T23:36:59.475Z,60.11
2022-08-23T23:39:27.703Z,59.97
2022-08-23T23:41:55.621Z,59.46
2022-08-23T23:44:30.751Z,59.68
2022-08-23T23:46:59.601Z,60.00
2022-08-23T23:49:33.156Z,59.78
2022-08-23T23:52:02.393Z,60.18
2022-08-23T23:54:29.021Z,60.33
2022-08-23T23:56:55.702Z,60.31
2022-08-23T23:59:22.278Z,60.18
